Time;durP1;ratioP1;P1;durP2;ratioP2;P2;SDS_P1;SDS_P2;PMS_P1;PMS_P2;Temp;Humidity;BMP_temperature;BMP_pressure;BME280_temperature;BME280_humidity;BME280_pressure;Samples;Min_cycle;Max_cycle;Signal;HPM_P1;HPM_P2
2022/05/01 21:25:56;;;;;;;;;12.50;11.50;;;;;;;;5174170;27;78698;-69
2022/05/01 21:33:50;;;;;;;;;9.50;9.00;;;;;;;;5156824;27;11557;-70
2022/05/01 21:36:15;;;;;;;;;8.00;6.50;;;;;;;;5156298;27;21907;-69
2022/05/01 21:38:40;;;;;;;;;11.00;9.75;;;;;;;;5154881;27;11715;-70
2022/05/01 21:41:06;;;;;;;;;10.25;7.00;;;;;;;;5155909;27;22126;-70
2022/05/01 21:43:31;;;;;;;;;11.25;9.25;;;;;;;;5156128;27;10647;-70
2022/05/01 21:45:56;;;;;;;;;12.50;9.00;;;;;;;;5155845;27;10282;-69
2022/05/01 21:48:22;;;;;;;;;10.50;10.50;;;;;;;;5156951;27;11911;-70
2022/05/01 21:50:48;;;;;;;;;10.50;10.50;;;;;;;;5155053;27;21432;-68
2022/05/01 21:53:13;;;;;;;;;11.00;11.00;;;;;;;;5156879;27;8868;-70
2022/05/01 21:55:38;;;;;;;;;9.50;9.50;;;;;;;;5152767;27;11750;-71
2022/05/01 21:58:03;;;;;;;;;14.50;11.00;;;;;;;;5135319;27;22256;-70
2022/05/01 22:00:29;;;;;;;;;9.50;8.75;;;;;;;;5134661;27;22411;-70
2022/05/01 22:02:56;;;;;;;;;7.00;7.00;;;;;;;;5135405;27;22151;-70
2022/05/01 22:05:21;;;;;;;;;10.00;10.00;;;;;;;;5135030;27;11987;-69
2022/05/01 22:07:47;;;;;;;;;11.00;9.75;;;;;;;;5134692;27;23725;-69
2022/05/01 22:10:12;;;;;;;;;10.00;9.75;;;;;;;;5135014;27;21475;-70
2022/05/01 22:12:37;;;;;;;;;10.75;9.00;;;;;;;;5134899;27;8791;-70
2022/05/01 22:15:03;;;;;;;;;10.00;9.00;;;;;;;;5133997;27;8815;-71
2022/05/01 22:17:37;;;;;;;;;9.75;9.75;;;;;;;;5136469;27;8779;-71
2022/05/01 22:20:02;;;;;;;;;9.50;9.50;;;;;;;;5134559;27;21939;-70
2022/05/01 22:22:27;;;;;;;;;11.00;9.25;;;;;;;;5134273;27;11450;-70
2022/05/01 22:24:53;;;;;;;;;7.25;6.75;;;;;;;;5134729;27;22524;-70
2022/05/01 22:27:18;;;;;;;;;10.00;8.50;;;;;;;;5135439;27;21516;-70
2022/05/01 22:29:43;;;;;;;;;9.75;7.00;;;;;;;;5135438;27;22049;-71
2022/05/01 22:32:09;;;;;;;;;7.00;6.00;;;;;;;;5135078;27;22450;-69
2022/05/01 22:34:34;;;;;;;;;6.25;6.25;;;;;;;;5135537;27;10482;-70
2022/05/01 22:39:44;;;;;;;;;10.25;9.00;;;;;;;;5121524;28;22473;-70
2022/05/01 22:42:09;;;;;;;;;8.50;6.25;;;;;;;;5120913;27;11463;-70
2022/05/01 22:44:35;;;;;;;;;7.00;6.75;;;;;;;;5120684;27;21609;-70
2022/05/01 22:47:00;;;;;;;;;7.00;7.00;;;;;;;;5121255;27;10812;-70
2022/05/01 22:49:26;;;;;;;;;9.25;7.00;;;;;;;;5121196;27;8925;-71
2022/05/01 22:51:51;;;;;;;;;9.25;7.00;;;;;;;;5120986;27;9473;-71
2022/05/01 22:54:17;;;;;;;;;12.00;9.25;;;;;;;;5120775;27;8787;-71
2022/05/01 22:56:42;;;;;;;;;11.00;9.75;;;;;;;;5121136;27;22739;-70
2022/05/01 22:59:07;;;;;;;;;11.50;10.00;;;;;;;;5121504;27;10034;-70
2022/05/01 23:01:33;;;;;;;;;9.50;9.50;;;;;;;;5121107;27;21406;-70
2022/05/01 23:03:58;;;;;;;;;13.00;11.25;;;;;;;;5120954;27;22448;-70
2022/05/01 23:06:24;;;;;;;;;9.00;7.00;;;;;;;;5120770;27;22414;-70
2022/05/01 23:08:49;;;;;;;;;10.25;6.75;;;;;;;;5120699;27;23329;-70
2022/05/01 23:11:14;;;;;;;;;10.50;10.00;;;;;;;;5118993;28;21711;-71
2022/05/01 23:13:40;;;;;;;;;9.50;9.25;;;;;;;;5120535;27;21526;-70
2022/05/01 23:16:06;;;;;;;;;9.00;9.00;;;;;;;;5120056;27;22353;-70
2022/05/01 23:18:31;;;;;;;;;11.50;10.00;;;;;;;;5120563;27;9635;-70
2022/05/01 23:20:57;;;;;;;;;9.00;9.00;;;;;;;;5121171;28;22844;-71
2022/05/01 23:23:26;;;;;;;;;10.00;10.00;;;;;;;;5120544;27;23290;-70
2022/05/01 23:25:52;;;;;;;;;8.50;8.50;;;;;;;;5128936;27;22332;-70
2022/05/01 23:28:17;;;;;;;;;7.00;7.00;;;;;;;;5141612;27;22307;-70
2022/05/01 23:30:43;;;;;;;;;6.00;6.00;;;;;;;;5141645;27;11308;-70
2022/05/01 23:33:09;;;;;;;;;6.00;6.00;;;;;;;;5141891;27;8788;-71
2022/05/01 23:35:35;;;;;;;;;6.00;5.00;;;;;;;;5141375;27;9891;-70
2022/05/01 23:38:01;;;;;;;;;9.00;6.50;;;;;;;;5141113;27;11550;-71
2022/05/01 23:40:26;;;;;;;;;8.50;8.50;;;;;;;;5140648;27;11293;-71
2022/05/01 23:42:52;;;;;;;;;5.75;5.75;;;;;;;;5141065;27;10428;-70
2022/05/01 23:45:18;;;;;;;;;8.00;6.25;;;;;;;;5140823;27;11466;-70
2022/05/01 23:47:43;;;;;;;;;6.75;6.00;;;;;;;;5140101;27;11452;-71
2022/05/01 23:50:09;;;;;;;;;6.75;6.25;;;;;;;;5140533;27;11481;-71
2022/05/01 23:52:34;;;;;;;;;8.00;8.00;;;;;;;;5140937;27;9469;-71
2022/05/01 23:54:59;;;;;;;;;6.75;5.75;;;;;;;;5140129;27;11289;-71
2022/05/01 23:57:25;;;;;;;;;9.00;6.00;;;;;;;;5140574;27;12533;-71
2022/05/01 23:59:50;;;;;;;;;7.00;7.00;;;;;;;;5140168;27;11478;-71
